sensor_id;sensor_type;location;lat;lon;timestamp;temperature;humidity
21318;DHT22;10818;50.830;6.524;2022-09-27T00:03:30;11.30;99.90
21318;DHT22;10818;50.830;6.524;2022-09-27T00:08:31;11.20;99.90
21318;DHT22;10818;50.830;6.524;2022-09-27T00:13:32;11.20;99.90
21318;DHT22;10818;50.830;6.524;2022-09-27T00:18:33;11.20;99.90
21318;DHT22;10818;50.830;6.524;2022-09-27T00:23:33;11.10;99.90
21318;DHT22;10818;50.830;6.524;2022-09-27T00:28:34;11.10;99.90
21318;DHT22;10818;50.830;6.524;2022-09-27T00:33:35;11.10;99.90
21318;DHT22;10818;50.830;6.524;2022-09-27T00:38:35;11.10;99.90
21318;DHT22;10818;50.830;6.524;2022-09-27T00:43:44;11.10;99.90
21318;DHT22;10818;50.830;6.524;2022-09-27T00:48:45;11.10;99.90
21318;DHT22;10818;50.830;6.524;2022-09-27T00:53:47;11.10;99.90
21318;DHT22;10818;50.830;6.524;2022-09-27T00:58:52;11.10;99.90
21318;DHT22;10818;50.830;6.524;2022-09-27T01:04:06;11.10;99.90
21318;DHT22;10818;50.830;6.524;2022-09-27T01:09:08;11.10;99.90
21318;DHT22;10818;50.830;6.524;2022-09-27T01:34:32;11.10;99.90
21318;DHT22;10818;50.830;6.524;2022-09-27T01:50:04;11.20;99.90
21318;DHT22;10818;50.830;6.524;2022-09-27T01:55:07;11.10;99.90
21318;DHT22;10818;50.830;6.524;2022-09-27T02:00:10;11.10;99.90
21318;DHT22;10818;50.830;6.524;2022-09-27T02:05:10;11.10;99.90
21318;DHT22;10818;50.830;6.524;2022-09-27T02:10:21;11.10;99.90
21318;DHT22;10818;50.830;6.524;2022-09-27T02:15:22;11.00;99.90
21318;DHT22;10818;50.830;6.524;2022-09-27T02:20:30;10.90;99.90
21318;DHT22;10818;50.830;6.524;2022-09-27T02:25:49;10.80;99.90
21318;DHT22;10818;50.830;6.524;2022-09-27T02:30:50;10.80;99.90
21318;DHT22;10818;50.830;6.524;2022-09-27T02:35:51;10.80;99.90
21318;DHT22;10818;50.830;6.524;2022-09-27T02:40:51;10.60;99.90
21318;DHT22;10818;50.830;6.524;2022-09-27T02:51:08;10.50;99.90
21318;DHT22;10818;50.830;6.524;2022-09-27T03:01:12;10.40;99.90
21318;DHT22;10818;50.830;6.524;2022-09-27T03:06:15;10.40;99.90
21318;DHT22;10818;50.830;6.524;2022-09-27T03:11:17;10.40;99.90
21318;DHT22;10818;50.830;6.524;2022-09-27T03:16:17;10.40;99.90
21318;DHT22;10818;50.830;6.524;2022-09-27T03:21:18;10.40;99.90
21318;DHT22;10818;50.830;6.524;2022-09-27T03:26:19;10.50;99.90
21318;DHT22;10818;50.830;6.524;2022-09-27T03:31:19;10.40;99.90
21318;DHT22;10818;50.830;6.524;2022-09-27T03:36:20;10.40;99.90
21318;DHT22;10818;50.830;6.524;2022-09-27T03:41:20;10.30;99.90
21318;DHT22;10818;50.830;6.524;2022-09-27T03:46:21;10.30;99.90
21318;DHT22;10818;50.830;6.524;2022-09-27T03:51:21;10.30;99.90
21318;DHT22;10818;50.830;6.524;2022-09-27T03:56:22;10.20;99.90
21318;DHT22;10818;50.830;6.524;2022-09-27T04:01:23;10.30;99.90
21318;DHT22;10818;50.830;6.524;2022-09-27T04:06:25;10.30;99.90
21318;DHT22;10818;50.830;6.524;2022-09-27T04:11:26;10.20;99.90
21318;DHT22;10818;50.830;6.524;2022-09-27T04:16:26;10.00;99.90
21318;DHT22;10818;50.830;6.524;2022-09-27T04:21:27;10.00;99.90
21318;DHT22;10818;50.830;6.524;2022-09-27T04:26:27;9.90;99.90
21318;DHT22;10818;50.830;6.524;2022-09-27T04:31:28;9.70;99.90
21318;DHT22;10818;50.830;6.524;2022-09-27T04:36:28;9.70;99.90
21318;DHT22;10818;50.830;6.524;2022-09-27T04:41:29;9.70;99.90
21318;DHT22;10818;50.830;6.524;2022-09-27T04:46:30;9.70;99.90
21318;DHT22;10818;50.830;6.524;2022-09-27T04:51:30;9.60;99.90
21318;DHT22;10818;50.830;6.524;2022-09-27T04:56:31;9.50;99.90
21318;DHT22;10818;50.830;6.524;2022-09-27T05:01:31;9.40;99.90
21318;DHT22;10818;50.830;6.524;2022-09-27T05:06:33;9.30;99.90
21318;DHT22;10818;50.830;6.524;2022-09-27T05:11:33;9.30;99.90
21318;DHT22;10818;50.830;6.524;2022-09-27T05:16:37;9.40;99.90
21318;DHT22;10818;50.830;6.524;2022-09-27T05:21:37;9.60;99.90
21318;DHT22;10818;50.830;6.524;2022-09-27T05:26:38;9.70;99.90
21318;DHT22;10818;50.830;6.524;2022-09-27T05:31:38;9.70;99.90
21318;DHT22;10818;50.830;6.524;2022-09-27T05:36:39;9.80;99.90
21318;DHT22;10818;50.830;6.524;2022-09-27T05:41:39;9.90;99.90
21318;DHT22;10818;50.830;6.524;2022-09-27T05:46:40;9.90;99.90
21318;DHT22;10818;50.830;6.524;2022-09-27T05:51:41;9.90;99.90
21318;DHT22;10818;50.830;6.524;2022-09-27T05:56:41;10.00;99.90
21318;DHT22;10818;50.830;6.524;2022-09-27T06:01:42;10.10;99.90
21318;DHT22;10818;50.830;6.524;2022-09-27T06:06:42;10.20;99.90
21318;DHT22;10818;50.830;6.524;2022-09-27T06:11:43;10.30;99.90
21318;DHT22;10818;50.830;6.524;2022-09-27T06:16:44;10.50;99.90
21318;DHT22;10818;50.830;6.524;2022-09-27T06:21:47;10.70;99.90
21318;DHT22;10818;50.830;6.524;2022-09-27T06:26:48;10.70;99.90
21318;DHT22;10818;50.830;6.524;2022-09-27T06:31:48;10.70;99.90
21318;DHT22;10818;50.830;6.524;2022-09-27T06:36:49;10.60;99.90
21318;DHT22;10818;50.830;6.524;2022-09-27T06:41:52;10.60;99.90
21318;DHT22;10818;50.830;6.524;2022-09-27T06:46:53;10.70;99.90
21318;DHT22;10818;50.830;6.524;2022-09-27T06:51:54;10.70;99.90
21318;DHT22;10818;50.830;6.524;2022-09-27T06:56:56;10.80;99.90
21318;DHT22;10818;50.830;6.524;2022-09-27T07:01:56;11.10;99.90
21318;DHT22;10818;50.830;6.524;2022-09-27T07:06:57;11.30;99.90
21318;DHT22;10818;50.830;6.524;2022-09-27T07:11:57;11.20;99.90
21318;DHT22;10818;50.830;6.524;2022-09-27T07:16:58;11.20;99.90
21318;DHT22;10818;50.830;6.524;2022-09-27T07:21:58;11.50;99.90
21318;DHT22;10818;50.830;6.524;2022-09-27T07:26:59;11.70;99.90
21318;DHT22;10818;50.830;6.524;2022-09-27T07:31:59;11.90;99.90
21318;DHT22;10818;50.830;6.524;2022-09-27T07:37:00;12.30;99.90
21318;DHT22;10818;50.830;6.524;2022-09-27T07:42:04;12.50;99.90
21318;DHT22;10818;50.830;6.524;2022-09-27T07:47:06;13.60;99.90
21318;DHT22;10818;50.830;6.524;2022-09-27T07:52:06;16.40;99.90
21318;DHT22;10818;50.830;6.524;2022-09-27T07:57:07;17.90;99.90
21318;DHT22;10818;50.830;6.524;2022-09-27T08:02:09;16.90;99.90
21318;DHT22;10818;50.830;6.524;2022-09-27T08:07:13;15.90;99.90
21318;DHT22;10818;50.830;6.524;2022-09-27T08:12:14;15.00;99.90
21318;DHT22;10818;50.830;6.524;2022-09-27T08:17:15;14.50;99.90
21318;DHT22;10818;50.830;6.524;2022-09-27T08:22:16;14.10;99.90
21318;DHT22;10818;50.830;6.524;2022-09-27T08:27:17;14.00;99.90
21318;DHT22;10818;50.830;6.524;2022-09-27T08:32:17;14.90;99.90
21318;DHT22;10818;50.830;6.524;2022-09-27T08:37:18;15.90;99.90
21318;DHT22;10818;50.830;6.524;2022-09-27T08:47:36;16.70;99.90
21318;DHT22;10818;50.830;6.524;2022-09-27T08:52:38;16.30;99.90
21318;DHT22;10818;50.830;6.524;2022-09-27T08:57:42;15.60;99.90
21318;DHT22;10818;50.830;6.524;2022-09-27T09:02:43;15.40;99.90
21318;DHT22;10818;50.830;6.524;2022-09-27T09:12:52;14.80;99.90
21318;DHT22;10818;50.830;6.524;2022-09-27T09:28:22;13.80;99.90
21318;DHT22;10818;50.830;6.524;2022-09-27T09:33:28;13.90;99.90
21318;DHT22;10818;50.830;6.524;2022-09-27T09:43:34;15.20;99.90
21318;DHT22;10818;50.830;6.524;2022-09-27T09:53:43;15.70;99.90
21318;DHT22;10818;50.830;6.524;2022-09-27T09:58:50;15.90;99.90
21318;DHT22;10818;50.830;6.524;2022-09-27T10:03:53;15.90;99.90
21318;DHT22;10818;50.830;6.524;2022-09-27T10:08:54;15.90;99.90
21318;DHT22;10818;50.830;6.524;2022-09-27T10:13:55;15.30;99.90
21318;DHT22;10818;50.830;6.524;2022-09-27T10:18:56;14.80;99.90
21318;DHT22;10818;50.830;6.524;2022-09-27T10:29:19;13.70;99.90
21318;DHT22;10818;50.830;6.524;2022-09-27T10:39:21;14.10;99.90
21318;DHT22;10818;50.830;6.524;2022-09-27T10:44:24;14.20;99.90
21318;DHT22;10818;50.830;6.524;2022-09-27T10:54:35;14.40;99.90
21318;DHT22;10818;50.830;6.524;2022-09-27T10:59:37;14.70;99.90
21318;DHT22;10818;50.830;6.524;2022-09-27T11:04:39;15.20;99.90
21318;DHT22;10818;50.830;6.524;2022-09-27T11:09:47;15.30;99.90
21318;DHT22;10818;50.830;6.524;2022-09-27T11:14:50;14.90;99.90
21318;DHT22;10818;50.830;6.524;2022-09-27T11:20:13;14.60;99.90
21318;DHT22;10818;50.830;6.524;2022-09-27T11:30:44;14.40;99.90
21318;DHT22;10818;50.830;6.524;2022-09-27T11:36:04;14.10;99.90
21318;DHT22;10818;50.830;6.524;2022-09-27T12:01:39;12.90;99.90
21318;DHT22;10818;50.830;6.524;2022-09-27T12:11:46;13.10;99.90
21318;DHT22;10818;50.830;6.524;2022-09-27T12:16:49;13.80;99.90
21318;DHT22;10818;50.830;6.524;2022-09-27T12:21:50;14.20;99.90
21318;DHT22;10818;50.830;6.524;2022-09-27T12:26:51;14.50;99.90
21318;DHT22;10818;50.830;6.524;2022-09-27T12:37:41;14.50;99.90
21318;DHT22;10818;50.830;6.524;2022-09-27T12:42:41;14.50;99.90
21318;DHT22;10818;50.830;6.524;2022-09-27T12:47:59;14.50;99.90
21318;DHT22;10818;50.830;6.524;2022-09-27T12:53:16;14.20;99.90
21318;DHT22;10818;50.830;6.524;2022-09-27T12:58:27;14.10;99.90
21318;DHT22;10818;50.830;6.524;2022-09-27T13:14:15;12.50;99.90
21318;DHT22;10818;50.830;6.524;2022-09-27T13:19:50;13.00;99.90
21318;DHT22;10818;50.830;6.524;2022-09-27T13:24:45;13.60;99.90
21318;DHT22;10818;50.830;6.524;2022-09-27T13:29:46;13.90;99.90
21318;DHT22;10818;50.830;6.524;2022-09-27T13:34:50;13.90;99.90
21318;DHT22;10818;50.830;6.524;2022-09-27T14:00:44;14.30;99.90
21318;DHT22;10818;50.830;6.524;2022-09-27T14:05:57;14.30;99.90
21318;DHT22;10818;50.830;6.524;2022-09-27T14:10:59;14.60;99.90
21318;DHT22;10818;50.830;6.524;2022-09-27T14:16:02;15.10;99.90
21318;DHT22;10818;50.830;6.524;2022-09-27T14:21:08;15.40;99.90
21318;DHT22;10818;50.830;6.524;2022-09-27T14:26:25;15.20;99.90
21318;DHT22;10818;50.830;6.524;2022-09-27T14:31:25;15.10;99.90
21318;DHT22;10818;50.830;6.524;2022-09-27T14:36:28;14.70;99.90
21318;DHT22;10818;50.830;6.524;2022-09-27T14:41:49;14.10;99.90
21318;DHT22;10818;50.830;6.524;2022-09-27T14:47:06;13.50;99.90
21318;DHT22;10818;50.830;6.524;2022-09-27T14:52:14;12.80;99.90
21318;DHT22;10818;50.830;6.524;2022-09-27T14:57:15;12.20;99.90
21318;DHT22;10818;50.830;6.524;2022-09-27T15:02:17;11.80;99.90
21318;DHT22;10818;50.830;6.524;2022-09-27T15:07:19;11.70;99.90
21318;DHT22;10818;50.830;6.524;2022-09-27T15:12:22;11.70;99.90
21318;DHT22;10818;50.830;6.524;2022-09-27T15:17:24;11.80;99.90
21318;DHT22;10818;50.830;6.524;2022-09-27T15:27:31;12.00;99.90
21318;DHT22;10818;50.830;6.524;2022-09-27T15:32:32;12.00;99.90
21318;DHT22;10818;50.830;6.524;2022-09-27T15:37:34;12.20;99.90
21318;DHT22;10818;50.830;6.524;2022-09-27T15:42:53;12.20;99.90
21318;DHT22;10818;50.830;6.524;2022-09-27T15:47:54;12.20;99.90
21318;DHT22;10818;50.830;6.524;2022-09-27T15:52:54;12.00;99.90
21318;DHT22;10818;50.830;6.524;2022-09-27T15:58:00;12.10;99.90
21318;DHT22;10818;50.830;6.524;2022-09-27T16:03:01;12.10;99.90
21318;DHT22;10818;50.830;6.524;2022-09-27T16:08:02;12.00;99.90
21318;DHT22;10818;50.830;6.524;2022-09-27T16:13:02;11.90;99.90
21318;DHT22;10818;50.830;6.524;2022-09-27T16:18:03;12.00;99.90
21318;DHT22;10818;50.830;6.524;2022-09-27T16:23:03;11.90;99.90
21318;DHT22;10818;50.830;6.524;2022-09-27T16:28:04;11.90;99.90
21318;DHT22;10818;50.830;6.524;2022-09-27T16:33:04;11.90;99.90
21318;DHT22;10818;50.830;6.524;2022-09-27T16:38:05;11.80;99.90
21318;DHT22;10818;50.830;6.524;2022-09-27T16:43:06;11.80;99.90
21318;DHT22;10818;50.830;6.524;2022-09-27T16:48:06;11.80;99.90
21318;DHT22;10818;50.830;6.524;2022-09-27T16:53:07;11.80;99.90
21318;DHT22;10818;50.830;6.524;2022-09-27T16:58:07;11.80;99.90
21318;DHT22;10818;50.830;6.524;2022-09-27T17:03:08;11.70;99.90
21318;DHT22;10818;50.830;6.524;2022-09-27T17:08:09;11.60;99.90
21318;DHT22;10818;50.830;6.524;2022-09-27T17:13:09;11.60;99.90
21318;DHT22;10818;50.830;6.524;2022-09-27T17:18:10;11.60;99.90
21318;DHT22;10818;50.830;6.524;2022-09-27T17:23:11;11.50;99.90
21318;DHT22;10818;50.830;6.524;2022-09-27T17:28:11;11.50;99.90
21318;DHT22;10818;50.830;6.524;2022-09-27T17:33:12;11.40;99.90
21318;DHT22;10818;50.830;6.524;2022-09-27T17:38:13;11.40;99.90
21318;DHT22;10818;50.830;6.524;2022-09-27T17:43:13;11.30;99.90
21318;DHT22;10818;50.830;6.524;2022-09-27T17:48:14;11.20;99.90
21318;DHT22;10818;50.830;6.524;2022-09-27T17:53:34;11.20;99.90
21318;DHT22;10818;50.830;6.524;2022-09-27T17:58:34;11.30;99.90
21318;DHT22;10818;50.830;6.524;2022-09-27T18:03:35;11.30;99.90
21318;DHT22;10818;50.830;6.524;2022-09-27T18:08:35;11.30;99.90
21318;DHT22;10818;50.830;6.524;2022-09-27T18:13:36;11.30;99.90
21318;DHT22;10818;50.830;6.524;2022-09-27T18:18:40;11.30;99.90
21318;DHT22;10818;50.830;6.524;2022-09-27T18:23:41;11.20;99.90
21318;DHT22;10818;50.830;6.524;2022-09-27T18:28:42;11.30;99.90
21318;DHT22;10818;50.830;6.524;2022-09-27T18:33:43;11.40;99.90
21318;DHT22;10818;50.830;6.524;2022-09-27T18:38:44;11.30;99.90
21318;DHT22;10818;50.830;6.524;2022-09-27T18:43:45;11.30;99.90
21318;DHT22;10818;50.830;6.524;2022-09-27T18:48:46;11.20;99.90
21318;DHT22;10818;50.830;6.524;2022-09-27T18:53:47;11.20;99.90
21318;DHT22;10818;50.830;6.524;2022-09-27T18:58:47;11.10;99.90
21318;DHT22;10818;50.830;6.524;2022-09-27T19:03:48;11.00;99.90
21318;DHT22;10818;50.830;6.524;2022-09-27T19:08:55;10.90;99.90
21318;DHT22;10818;50.830;6.524;2022-09-27T19:13:59;10.90;99.90
21318;DHT22;10818;50.830;6.524;2022-09-27T19:19:00;10.90;99.90
21318;DHT22;10818;50.830;6.524;2022-09-27T19:24:00;10.80;99.90
21318;DHT22;10818;50.830;6.524;2022-09-27T19:29:01;10.80;99.90
21318;DHT22;10818;50.830;6.524;2022-09-27T19:34:01;10.70;99.90
21318;DHT22;10818;50.830;6.524;2022-09-27T19:39:02;10.60;99.90
21318;DHT22;10818;50.830;6.524;2022-09-27T19:44:03;10.60;99.90
21318;DHT22;10818;50.830;6.524;2022-09-27T19:49:04;10.60;99.90
21318;DHT22;10818;50.830;6.524;2022-09-27T19:54:04;10.50;99.90
21318;DHT22;10818;50.830;6.524;2022-09-27T19:59:05;10.40;99.90
21318;DHT22;10818;50.830;6.524;2022-09-27T20:04:06;10.40;99.90
21318;DHT22;10818;50.830;6.524;2022-09-27T20:09:06;10.40;99.90
21318;DHT22;10818;50.830;6.524;2022-09-27T20:14:07;10.60;99.90
21318;DHT22;10818;50.830;6.524;2022-09-27T20:19:08;10.70;99.90
21318;DHT22;10818;50.830;6.524;2022-09-27T20:24:08;10.70;99.90
21318;DHT22;10818;50.830;6.524;2022-09-27T20:29:09;10.70;99.90
21318;DHT22;10818;50.830;6.524;2022-09-27T20:34:11;10.80;99.90
21318;DHT22;10818;50.830;6.524;2022-09-27T20:39:12;10.80;99.90
21318;DHT22;10818;50.830;6.524;2022-09-27T20:44:14;10.90;99.90
21318;DHT22;10818;50.830;6.524;2022-09-27T20:49:15;10.80;99.90
21318;DHT22;10818;50.830;6.524;2022-09-27T20:54:16;10.70;99.90
21318;DHT22;10818;50.830;6.524;2022-09-27T20:59:18;10.70;99.90
21318;DHT22;10818;50.830;6.524;2022-09-27T21:04:19;10.60;99.90
21318;DHT22;10818;50.830;6.524;2022-09-27T21:09:20;10.40;99.90
21318;DHT22;10818;50.830;6.524;2022-09-27T21:14:21;10.20;99.90
21318;DHT22;10818;50.830;6.524;2022-09-27T21:19:22;10.10;99.90
21318;DHT22;10818;50.830;6.524;2022-09-27T21:24:22;10.10;99.90
21318;DHT22;10818;50.830;6.524;2022-09-27T21:29:23;10.10;99.90
21318;DHT22;10818;50.830;6.524;2022-09-27T21:34:23;10.00;99.90
21318;DHT22;10818;50.830;6.524;2022-09-27T21:39:24;10.10;99.90
21318;DHT22;10818;50.830;6.524;2022-09-27T21:44:24;10.00;99.90
21318;DHT22;10818;50.830;6.524;2022-09-27T21:49:26;9.90;99.90
21318;DHT22;10818;50.830;6.524;2022-09-27T21:54:29;9.80;99.90
21318;DHT22;10818;50.830;6.524;2022-09-27T21:59:30;9.70;99.90
21318;DHT22;10818;50.830;6.524;2022-09-27T22:04:31;9.50;99.90
21318;DHT22;10818;50.830;6.524;2022-09-27T22:09:31;9.40;99.90
21318;DHT22;10818;50.830;6.524;2022-09-27T22:14:32;9.20;99.90
21318;DHT22;10818;50.830;6.524;2022-09-27T22:19:33;9.20;99.90
21318;DHT22;10818;50.830;6.524;2022-09-27T22:24:33;9.40;99.90
21318;DHT22;10818;50.830;6.524;2022-09-27T22:29:34;9.50;99.90
21318;DHT22;10818;50.830;6.524;2022-09-27T22:34:35;9.70;99.90
21318;DHT22;10818;50.830;6.524;2022-09-27T22:39:35;9.70;99.90
21318;DHT22;10818;50.830;6.524;2022-09-27T22:44:36;9.80;99.90
21318;DHT22;10818;50.830;6.524;2022-09-27T22:49:38;9.70;99.90
21318;DHT22;10818;50.830;6.524;2022-09-27T22:54:38;9.60;99.90
21318;DHT22;10818;50.830;6.524;2022-09-27T22:59:39;9.60;99.90
21318;DHT22;10818;50.830;6.524;2022-09-27T23:04:40;9.50;99.90
21318;DHT22;10818;50.830;6.524;2022-09-27T23:09:40;9.40;99.90
21318;DHT22;10818;50.830;6.524;2022-09-27T23:14:41;9.30;99.90
21318;DHT22;10818;50.830;6.524;2022-09-27T23:19:41;9.30;99.90
21318;DHT22;10818;50.830;6.524;2022-09-27T23:24:42;9.30;99.90
21318;DHT22;10818;50.830;6.524;2022-09-27T23:29:42;9.40;99.90
21318;DHT22;10818;50.830;6.524;2022-09-27T23:34:43;9.40;99.90
21318;DHT22;10818;50.830;6.524;2022-09-27T23:39:43;9.40;99.90
21318;DHT22;10818;50.830;6.524;2022-09-27T23:44:44;9.30;99.90
21318;DHT22;10818;50.830;6.524;2022-09-27T23:49:44;9.40;99.90
21318;DHT22;10818;50.830;6.524;2022-09-27T23:54:45;9.50;99.90
21318;DHT22;10818;50.830;6.524;2022-09-27T23:59:46;9.40;99.90
